createdAt,value
2019-02-10T00:00:42.579Z,7.43
2019-02-10T00:08:11.005Z,7.92
2019-02-10T00:10:41.336Z,7.33
2019-02-10T00:13:35.323Z,7.20
2019-02-10T00:16:22.335Z,7.80
2019-02-10T00:18:52.122Z,7.75
2019-02-10T00:21:22.009Z,8.10
2019-02-10T00:23:51.688Z,7.08
2019-02-10T00:28:50.646Z,7.15
2019-02-10T00:36:18.314Z,6.92
2019-02-10T00:38:48.152Z,7.00
2019-02-10T00:41:17.822Z,7.47
2019-02-10T00:43:47.646Z,7.67
2019-02-10T00:46:17.464Z,8.00
2019-02-10T00:48:47.440Z,8.38
2019-02-10T00:51:17.665Z,7.62
2019-02-10T00:58:45.567Z,7.95
2019-02-10T01:01:15.311Z,7.25
2019-02-10T01:03:45.050Z,6.90
2019-02-10T01:06:14.823Z,6.85
2019-02-10T01:08:44.672Z,6.75
2019-02-10T01:11:14.743Z,6.00
2019-02-10T01:13:44.881Z,6.20
2019-02-10T01:16:14.650Z,5.92
2019-02-10T01:19:09.052Z,5.95
2019-02-10T01:21:45.315Z,6.67
2019-02-10T01:24:15.050Z,7.30
2019-02-10T01:26:45.049Z,6.35
2019-02-10T01:29:15.047Z,6.62
2019-02-10T01:31:46.008Z,6.90
2019-02-10T01:34:15.603Z,6.60
2019-02-10T01:41:48.314Z,6.37
2019-02-10T01:44:18.511Z,6.75
2019-02-10T01:46:48.128Z,6.70
2019-02-10T01:49:17.846Z,6.15
2019-02-10T01:51:47.690Z,6.50
2019-02-10T01:54:17.319Z,6.30
2019-02-10T01:56:47.462Z,6.42
2019-02-10T01:59:17.512Z,6.28
2019-02-10T02:01:47.216Z,6.70
2019-02-10T02:04:17.015Z,6.28
2019-02-10T02:06:47.151Z,6.72
2019-02-10T02:09:16.662Z,6.25
2019-02-10T02:11:46.641Z,6.27
2019-02-10T02:16:46.052Z,6.43
2019-02-10T02:19:15.644Z,6.83
2019-02-10T02:21:45.524Z,7.10
2019-02-10T02:24:15.539Z,6.30
2019-02-10T02:26:45.320Z,6.80
2019-02-10T02:29:14.934Z,6.58
2019-02-10T02:31:44.615Z,6.62
2019-02-10T02:34:14.107Z,6.53
2019-02-10T02:36:43.631Z,6.22
2019-02-10T02:39:13.517Z,6.30
2019-02-10T02:41:43.650Z,6.33
2019-02-10T02:46:43.307Z,6.40
2019-02-10T02:49:12.796Z,5.90
2019-02-10T02:51:42.663Z,5.67
2019-02-10T02:56:41.621Z,6.25
2019-02-10T02:59:10.840Z,5.97
2019-02-10T03:01:40.525Z,5.90
2019-02-10T03:04:10.095Z,5.60
2019-02-10T03:06:46.191Z,5.90
2019-02-10T03:09:16.527Z,6.00
2019-02-10T03:11:46.109Z,5.97
2019-02-10T03:14:17.064Z,5.85
2019-02-10T03:16:47.030Z,6.05
2019-02-10T03:19:16.979Z,5.78
2019-02-10T03:21:46.979Z,6.03
2019-02-10T03:24:16.581Z,5.65
2019-02-10T03:26:46.334Z,6.30
2019-02-10T03:29:15.921Z,5.62
2019-02-10T03:31:45.558Z,5.12
2019-02-10T03:34:15.040Z,5.20
2019-02-10T03:36:44.515Z,5.37
2019-02-10T03:39:14.030Z,5.28
2019-02-10T03:44:27.319Z,5.50
2019-02-10T03:46:56.638Z,5.00
2019-02-10T03:53:26.779Z,5.05
2019-02-10T03:55:56.578Z,4.90
2019-02-10T04:03:24.514Z,4.78
2019-02-10T04:05:54.179Z,5.37
2019-02-10T04:08:23.808Z,5.28
2019-02-10T04:10:53.319Z,5.15
2019-02-10T04:13:23.111Z,5.00
2019-02-10T04:15:53.166Z,5.25
2019-02-10T04:18:22.791Z,4.97
2019-02-10T04:20:52.632Z,5.10
2019-02-10T04:23:22.177Z,4.97
2019-02-10T04:25:51.839Z,4.90
2019-02-10T04:28:21.164Z,4.60
2019-02-10T04:30:51.319Z,4.83
2019-02-10T04:33:21.445Z,4.80
2019-02-10T04:35:51.123Z,5.00
2019-02-10T04:38:20.851Z,4.90
2019-02-10T04:40:50.635Z,4.30
2019-02-10T04:45:48.833Z,5.12
2019-02-10T04:48:18.654Z,4.72
2019-02-10T04:53:17.529Z,5.17
2019-02-10T04:56:14.437Z,4.47
2019-02-10T04:58:44.053Z,4.22
2019-02-10T05:01:13.795Z,3.55
2019-02-10T05:06:12.520Z,4.80
2019-02-10T05:08:42.460Z,3.85
2019-02-10T05:11:12.108Z,4.47
2019-02-10T05:13:41.809Z,4.25
2019-02-10T05:16:11.521Z,4.30
2019-02-10T05:18:41.319Z,4.25
2019-02-10T05:21:12.177Z,4.83
2019-02-10T05:23:41.805Z,4.42
2019-02-10T05:26:11.496Z,4.47
2019-02-10T05:28:41.481Z,4.60
2019-02-10T05:38:37.825Z,4.53
2019-02-10T05:41:07.644Z,4.55
2019-02-10T05:43:37.429Z,4.08
2019-02-10T05:46:07.010Z,3.87
2019-02-10T05:48:36.630Z,4.22
2019-02-10T05:51:06.135Z,4.08
2019-02-10T05:53:35.808Z,4.45
2019-02-10T05:56:05.541Z,4.65
2019-02-10T05:58:35.335Z,4.55
2019-02-10T06:02:27.761Z,4.33
2019-02-10T06:07:32.972Z,4.17
2019-02-10T06:10:02.895Z,4.30
2019-02-10T06:12:33.014Z,4.12
2019-02-10T06:15:03.021Z,3.80
2019-02-10T06:17:33.835Z,4.05
2019-02-10T06:20:05.661Z,4.22
2019-02-10T06:27:33.520Z,4.12
2019-02-10T06:30:03.071Z,4.67
2019-02-10T06:32:33.042Z,4.67
2019-02-10T06:35:03.321Z,4.03
2019-02-10T06:37:33.022Z,3.95
2019-02-10T06:40:02.802Z,3.85
2019-02-10T06:42:32.642Z,3.50
2019-02-10T06:45:02.060Z,3.62
2019-02-10T06:47:32.531Z,3.65
2019-02-10T06:50:02.551Z,3.60
2019-02-10T06:52:32.660Z,3.62
2019-02-10T06:57:31.684Z,5.40
2019-02-10T07:00:29.785Z,3.47
2019-02-10T07:03:49.575Z,3.75
2019-02-10T07:06:19.119Z,3.87
2019-02-10T07:08:48.879Z,2.58
2019-02-10T07:11:18.620Z,3.02
2019-02-10T07:13:53.423Z,2.58
2019-02-10T07:16:48.644Z,2.67
2019-02-10T07:24:01.952Z,2.50
2019-02-10T07:26:55.835Z,3.45
2019-02-10T07:30:47.330Z,2.90
2019-02-10T07:34:27.032Z,3.37
2019-02-10T07:38:10.995Z,3.00
2019-02-10T07:41:43.320Z,3.30
2019-02-10T07:45:16.463Z,3.95
2019-02-10T07:48:25.486Z,3.45
2019-02-10T07:51:31.827Z,3.60
2019-02-10T07:55:34.655Z,3.50
2019-02-10T08:06:05.598Z,3.33
2019-02-10T08:12:57.677Z,3.15
2019-02-10T08:20:32.817Z,2.60
2019-02-10T08:23:52.833Z,1.95
2019-02-10T08:27:23.149Z,2.00
2019-02-10T08:30:50.544Z,1.65
2019-02-10T08:34:07.435Z,1.33
2019-02-10T08:37:52.993Z,1.30
2019-02-10T08:41:04.362Z,1.20
2019-02-10T08:45:37.605Z,1.32
2019-02-10T08:49:17.849Z,1.10
2019-02-10T08:52:35.058Z,1.10
2019-02-10T08:55:05.320Z,1.20
2019-02-10T08:57:34.981Z,1.20
2019-02-10T09:00:05.638Z,1.52
2019-02-10T09:05:04.827Z,1.10
2019-02-10T09:07:35.519Z,1.35
2019-02-10T09:10:43.037Z,1.80
2019-02-10T09:13:13.171Z,1.55
2019-02-10T09:15:42.848Z,1.30
2019-02-10T09:18:12.807Z,1.45
2019-02-10T09:20:42.512Z,1.32
2019-02-10T09:23:12.490Z,1.50
2019-02-10T09:25:42.319Z,1.92
2019-02-10T09:28:13.470Z,1.35
2019-02-10T09:30:43.430Z,1.47
2019-02-10T09:33:12.733Z,1.10
2019-02-10T09:35:41.752Z,1.60
2019-02-10T09:38:10.720Z,1.20
2019-02-10T09:44:26.859Z,1.37
2019-02-10T09:46:56.858Z,1.17
2019-02-10T09:49:29.447Z,1.20
2019-02-10T09:51:59.185Z,1.20
2019-02-10T09:54:29.367Z,1.17
2019-02-10T09:56:59.369Z,1.30
2019-02-10T09:59:29.320Z,1.40
2019-02-10T10:01:59.092Z,1.17
2019-02-10T10:04:29.457Z,1.07
2019-02-10T10:07:00.870Z,1.22
2019-02-10T10:09:30.819Z,1.17
2019-02-10T10:12:00.868Z,1.40
2019-02-10T10:14:31.198Z,1.57
2019-02-10T10:17:01.464Z,1.52
2019-02-10T10:19:31.344Z,1.05
2019-02-10T10:22:01.717Z,1.30
2019-02-10T10:28:36.340Z,1.25
2019-02-10T10:31:06.423Z,1.20
2019-02-10T10:33:36.245Z,1.37
2019-02-10T10:36:06.009Z,1.20
2019-02-10T10:38:35.921Z,1.45
2019-02-10T10:41:05.876Z,1.05
2019-02-10T10:43:35.816Z,1.45
2019-02-10T10:46:05.520Z,1.37
2019-02-10T10:48:35.304Z,1.15
2019-02-10T10:51:05.102Z,1.25
2019-02-10T10:53:34.917Z,1.35
2019-02-10T10:56:05.071Z,1.50
2019-02-10T10:58:35.525Z,1.22
2019-02-10T11:01:05.580Z,1.25
2019-02-10T11:03:35.656Z,1.27
2019-02-10T11:08:34.284Z,1.40
2019-02-10T11:11:04.310Z,1.35
2019-02-10T11:13:35.325Z,1.50
2019-02-10T11:16:05.916Z,1.40
2019-02-10T11:18:36.049Z,1.32
2019-02-10T11:21:09.130Z,1.40
2019-02-10T11:23:39.039Z,1.42
2019-02-10T11:26:09.143Z,1.65
2019-02-10T11:28:39.315Z,1.07
2019-02-10T11:31:09.307Z,1.10
2019-02-10T11:33:39.309Z,1.00
2019-02-10T11:36:09.310Z,0.90
2019-02-10T11:38:38.865Z,0.90
2019-02-10T11:41:09.160Z,1.17
2019-02-10T11:43:39.320Z,1.00
2019-02-10T11:46:10.307Z,1.02
2019-02-10T11:48:40.105Z,1.30
2019-02-10T11:51:10.134Z,1.17
2019-02-10T11:53:39.834Z,1.10
2019-02-10T11:56:09.606Z,1.00
2019-02-10T12:01:09.436Z,1.00
2019-02-10T12:03:39.328Z,1.05
2019-02-10T12:06:09.295Z,0.93
2019-02-10T12:08:39.046Z,1.10
2019-02-10T12:11:09.352Z,1.10
2019-02-10T12:13:40.457Z,1.20
2019-02-10T12:16:10.097Z,0.78
2019-02-10T12:18:39.828Z,1.10
2019-02-10T12:21:10.459Z,1.00
2019-02-10T12:23:40.306Z,1.02
2019-02-10T12:26:10.313Z,1.10
2019-02-10T12:28:39.960Z,0.90
2019-02-10T12:31:09.825Z,1.20
2019-02-10T12:33:40.313Z,1.32
2019-02-10T12:36:10.112Z,1.20
2019-02-10T12:38:39.985Z,0.98
2019-02-10T12:41:10.054Z,0.90
2019-02-10T12:43:40.313Z,0.98
2019-02-10T12:46:10.115Z,1.27
2019-02-10T12:48:40.146Z,1.27
2019-02-10T12:51:10.325Z,1.20
2019-02-10T12:53:40.411Z,1.30
2019-02-10T12:56:10.671Z,1.00
2019-02-10T13:01:09.387Z,1.02
2019-02-10T13:03:39.494Z,0.95
2019-02-10T13:06:09.742Z,1.10
2019-02-10T13:09:16.320Z,1.00
2019-02-10T13:11:46.574Z,0.98
2019-02-10T13:16:46.372Z,0.95
2019-02-10T13:19:16.004Z,1.05
2019-02-10T13:21:46.115Z,0.95
2019-02-10T13:24:16.562Z,1.17
2019-02-10T13:29:16.793Z,1.07
2019-02-10T13:31:46.839Z,1.10
2019-02-10T13:34:17.985Z,1.00
2019-02-10T13:36:48.120Z,1.10
2019-02-10T13:39:19.545Z,1.50
2019-02-10T13:41:46.652Z,1.40
2019-02-10T13:46:45.339Z,1.00
2019-02-10T13:49:15.182Z,1.22
2019-02-10T13:51:45.321Z,1.05
2019-02-10T13:54:15.320Z,1.35
2019-02-10T13:56:45.317Z,1.30
2019-02-10T13:59:15.177Z,1.52
2019-02-10T14:01:45.478Z,1.15
2019-02-10T14:04:16.312Z,1.20
2019-02-10T14:06:46.324Z,1.40
2019-02-10T14:09:16.321Z,0.90
2019-02-10T14:11:46.320Z,1.30
2019-02-10T14:14:16.134Z,1.12
2019-02-10T14:16:46.438Z,1.35
2019-02-10T14:19:16.580Z,1.45
2019-02-10T14:24:15.837Z,2.90
2019-02-10T14:26:45.830Z,2.12
2019-02-10T14:29:15.789Z,2.00
2019-02-10T14:31:45.760Z,1.90
2019-02-10T14:34:15.907Z,1.20
2019-02-10T14:36:46.263Z,1.65
2019-02-10T14:39:16.489Z,1.10
2019-02-10T14:44:16.459Z,1.47
2019-02-10T14:46:46.159Z,1.17
2019-02-10T14:49:15.826Z,1.90
2019-02-10T14:51:46.061Z,1.47
2019-02-10T14:54:16.136Z,3.50
2019-02-10T14:56:46.424Z,2.90
2019-02-10T14:59:16.831Z,1.75
2019-02-10T15:01:46.533Z,1.00
2019-02-10T15:04:16.409Z,1.07
2019-02-10T15:06:47.141Z,1.22
2019-02-10T15:09:16.905Z,1.20
2019-02-10T15:11:46.848Z,1.02
2019-02-10T15:14:18.839Z,1.40
2019-02-10T15:16:48.647Z,1.40
2019-02-10T15:21:47.991Z,1.27
2019-02-10T15:24:17.802Z,0.90
2019-02-10T15:26:48.116Z,1.20
2019-02-10T15:29:17.814Z,0.85
2019-02-10T15:31:47.642Z,0.90
2019-02-10T15:36:47.117Z,1.12
2019-02-10T15:39:17.140Z,1.12
2019-02-10T15:41:46.890Z,1.67
2019-02-10T15:45:23.070Z,1.00
2019-02-10T15:47:53.321Z,1.32
2019-02-10T15:50:23.138Z,1.22
2019-02-10T15:52:53.156Z,1.40
2019-02-10T15:55:23.131Z,1.50
2019-02-10T15:57:53.320Z,4.47
2019-02-10T16:00:25.116Z,4.95
2019-02-10T16:02:55.104Z,1.35
2019-02-10T16:05:25.000Z,1.32
2019-02-10T16:07:54.875Z,1.20
2019-02-10T16:10:25.119Z,1.00
2019-02-10T16:12:55.596Z,1.30
2019-02-10T16:17:54.968Z,1.00
2019-02-10T16:20:25.250Z,1.35
2019-02-10T16:22:55.851Z,1.12
2019-02-10T16:25:25.562Z,1.12
2019-02-10T16:30:24.528Z,0.90
2019-02-10T16:32:54.537Z,1.20
2019-02-10T16:40:22.961Z,0.85
2019-02-10T16:42:52.886Z,1.17
2019-02-10T16:45:23.344Z,1.22
2019-02-10T16:47:53.880Z,1.98
2019-02-10T16:50:24.047Z,1.95
2019-02-10T16:52:54.852Z,1.25
2019-02-10T16:55:25.115Z,0.70
2019-02-10T16:57:55.322Z,0.90
2019-02-10T17:00:26.942Z,1.12
2019-02-10T17:02:57.706Z,0.70
2019-02-10T17:05:28.114Z,0.90
2019-02-10T17:07:58.308Z,1.07
2019-02-10T17:10:28.541Z,1.00
2019-02-10T17:12:58.597Z,1.00
2019-02-10T17:17:59.662Z,1.20
2019-02-10T17:27:58.748Z,1.40
2019-02-10T17:30:28.515Z,1.10
2019-02-10T17:32:58.595Z,1.15
2019-02-10T17:35:28.366Z,1.25
2019-02-10T17:37:58.556Z,1.20
2019-02-10T17:40:53.508Z,1.07
2019-02-10T17:43:28.887Z,2.10
2019-02-10T17:45:58.906Z,1.67
2019-02-10T17:48:28.955Z,1.37
2019-02-10T17:50:58.929Z,1.10
2019-02-10T17:53:29.420Z,0.82
2019-02-10T17:55:59.660Z,0.68
2019-02-10T18:01:20.963Z,0.50
2019-02-10T18:03:50.839Z,0.50
2019-02-10T18:06:21.089Z,0.40
2019-02-10T18:08:51.112Z,0.40
2019-02-10T18:11:21.446Z,0.42
2019-02-10T18:13:51.319Z,0.60
2019-02-10T18:16:41.890Z,0.53
2019-02-10T18:19:34.868Z,0.80
2019-02-10T18:22:30.520Z,1.50
2019-02-10T18:25:22.228Z,0.68
2019-02-10T18:31:19.425Z,0.65
2019-02-10T18:37:05.700Z,0.72
2019-02-10T18:39:57.654Z,0.50
2019-02-10T18:45:17.310Z,0.45
2019-02-10T18:47:53.696Z,0.70
2019-02-10T18:50:42.784Z,0.70
2019-02-10T18:53:26.364Z,0.80
2019-02-10T18:56:11.572Z,0.60
2019-02-10T19:01:35.443Z,0.60
2019-02-10T19:04:33.690Z,0.90
2019-02-10T19:10:15.321Z,0.45
2019-02-10T19:13:04.315Z,0.40
2019-02-10T19:15:47.185Z,0.47
2019-02-10T19:18:45.525Z,0.45
2019-02-10T19:24:31.306Z,0.60
2019-02-10T19:27:22.776Z,0.60
2019-02-10T19:30:14.748Z,0.50
2019-02-10T19:32:49.689Z,0.60
2019-02-10T19:35:38.860Z,0.78
2019-02-10T19:38:30.641Z,0.50
2019-02-10T19:41:10.051Z,0.60
2019-02-10T19:43:55.849Z,0.40
2019-02-10T19:46:41.500Z,0.50
2019-02-10T19:49:46.058Z,0.70
2019-02-10T19:52:44.553Z,0.90
2019-02-10T19:58:03.702Z,0.50
2019-02-10T20:03:31.329Z,0.50
2019-02-10T20:06:19.322Z,0.53
2019-02-10T20:09:26.211Z,0.60
2019-02-10T20:12:04.433Z,0.72
2019-02-10T20:14:42.256Z,0.60
2019-02-10T20:17:37.122Z,0.57
2019-02-10T20:20:28.516Z,0.60
2019-02-10T20:23:10.034Z,0.60
2019-02-10T20:25:59.504Z,1.05
2019-02-10T20:28:57.584Z,0.62
2019-02-10T20:34:43.686Z,0.60
2019-02-10T20:37:21.486Z,0.68
2019-02-10T20:43:29.526Z,0.60
2019-02-10T20:46:27.698Z,0.50
2019-02-10T20:49:22.017Z,0.60
2019-02-10T20:52:03.018Z,0.60
2019-02-10T20:54:50.637Z,0.60
2019-02-10T21:00:18.504Z,0.53
2019-02-10T21:06:02.673Z,0.30
2019-02-10T21:08:38.560Z,0.40
2019-02-10T21:11:26.432Z,0.30
2019-02-10T21:14:14.678Z,0.50
2019-02-10T21:17:10.312Z,0.50
2019-02-10T21:20:05.949Z,0.30
2019-02-10T21:22:45.535Z,0.45
2019-02-10T21:25:35.327Z,0.45
2019-02-10T21:28:24.609Z,0.60
2019-02-10T21:34:11.453Z,0.30
2019-02-10T21:37:09.067Z,0.37
2019-02-10T21:40:07.544Z,0.55
2019-02-10T21:43:02.926Z,0.40
2019-02-10T21:45:44.634Z,0.42
2019-02-10T21:48:21.017Z,0.50
2019-02-10T21:50:50.798Z,0.50
2019-02-10T21:53:20.665Z,0.50
2019-02-10T21:55:50.550Z,0.50
2019-02-10T22:03:18.060Z,0.50
2019-02-10T22:05:47.871Z,0.40
2019-02-10T22:08:18.073Z,0.53
2019-02-10T22:10:48.040Z,0.50
2019-02-10T22:13:17.842Z,0.50
2019-02-10T22:15:47.361Z,0.40
2019-02-10T22:18:17.020Z,0.47
2019-02-10T22:20:46.645Z,0.40
2019-02-10T22:23:16.665Z,0.30
2019-02-10T22:25:46.110Z,0.67
2019-02-10T22:28:15.630Z,0.30
2019-02-10T22:30:45.165Z,0.50
2019-02-10T22:33:14.665Z,0.70
2019-02-10T22:35:44.251Z,0.40
2019-02-10T22:38:13.672Z,0.57
2019-02-10T22:43:12.329Z,0.60
2019-02-10T22:45:42.017Z,0.30
2019-02-10T22:48:13.674Z,0.40
2019-02-10T22:50:42.984Z,0.50
2019-02-10T22:53:12.547Z,0.40
2019-02-10T22:58:10.957Z,0.65
2019-02-10T23:00:54.513Z,0.40
2019-02-10T23:06:20.804Z,0.40
2019-02-10T23:08:50.320Z,0.50
2019-02-10T23:11:19.648Z,0.30
2019-02-10T23:16:18.687Z,0.50
2019-02-10T23:21:16.942Z,0.47
2019-02-10T23:23:46.441Z,0.40
2019-02-10T23:26:16.006Z,0.50
2019-02-10T23:28:45.774Z,0.50
2019-02-10T23:31:15.404Z,0.40
2019-02-10T23:33:45.140Z,0.40
2019-02-10T23:36:15.056Z,0.40
2019-02-10T23:38:45.006Z,0.50
2019-02-10T23:41:14.321Z,0.53
2019-02-10T23:43:44.189Z,0.40
2019-02-10T23:46:14.639Z,0.40
2019-02-10T23:48:44.333Z,0.40
2019-02-10T23:51:14.323Z,0.50
2019-02-10T23:53:44.028Z,0.50
2019-02-10T23:56:14.091Z,0.50
2019-02-10T23:58:44.125Z,0.50
